Time;durP1;ratioP1;P1;durP2;ratioP2;P2;SDS_P1;SDS_P2;PMS_P1;PMS_P2;Temp;Humidity;BMP_temperature;BMP_pressure;BME280_temperature;BME280_humidity;BME280_pressure;Samples;Min_cycle;Max_cycle;Signal;HPM_P1;HPM_P2
2021/08/02 00:01:36;;;;;;;7.13;2.17;;;14.90;99.90;;;;;;4974340;28;20109;-75
2021/08/02 00:04:08;;;;;;;5.18;2.22;;;14.90;99.90;;;;;;4974233;28;20023;-74
2021/08/02 00:06:51;;;;;;;8.65;2.25;;;14.90;99.90;;;;;;4973785;28;20035;-75
2021/08/02 00:09:22;;;;;;;4.35;2.15;;;14.90;99.90;;;;;;4974126;28;20025;-76
2021/08/02 00:12:08;;;;;;;8.00;2.35;;;14.90;99.90;;;;;;4973824;28;20119;-75
2021/08/02 00:14:35;;;;;;;8.63;2.22;;;14.90;99.90;;;;;;4974213;28;20023;-75
2021/08/02 00:17:01;;;;;;;3.08;1.60;;;14.90;99.90;;;;;;4974151;28;20483;-75
2021/08/02 00:19:27;;;;;;;5.13;1.98;;;14.80;99.90;;;;;;4959880;28;20571;-75
2021/08/02 00:21:53;;;;;;;4.82;1.77;;;14.80;99.90;;;;;;4973811;28;20031;-75
2021/08/02 00:24:20;;;;;;;3.35;1.67;;;14.90;99.90;;;;;;4974244;28;20053;-75
2021/08/02 00:26:46;;;;;;;6.97;1.92;;;14.90;99.90;;;;;;4973813;28;20031;-76
2021/08/02 00:29:13;;;;;;;4.30;1.90;;;14.90;99.90;;;;;;4974110;28;20482;-75
2021/08/02 00:31:38;;;;;;;5.18;1.80;;;14.90;99.90;;;;;;4974725;28;20037;-75
2021/08/02 00:34:04;;;;;;;2.90;1.80;;;14.90;99.90;;;;;;4973281;28;20031;-75
2021/08/02 00:36:42;;;;;;;4.43;1.33;;;14.90;99.90;;;;;;4973882;28;20034;-74
2021/08/02 00:39:25;;;;;;;9.48;1.63;;;14.90;99.90;;;;;;4973625;28;20018;-76
2021/08/02 00:42:27;;;;;;;3.10;1.42;;;14.90;99.90;;;;;;4960741;28;20026;-75
2021/08/02 00:45:05;;;;;;;4.13;1.50;;;14.90;99.90;;;;;;4973388;28;20524;-75
2021/08/02 00:47:36;;;;;;;5.25;1.77;;;14.90;99.90;;;;;;4972798;28;20702;-75
2021/08/02 00:50:13;;;;;;;;;;;14.90;99.90;;;;;;4973771;28;20019;-75
2021/08/02 00:52:49;;;;;;;2.88;1.20;;;14.90;99.90;;;;;;4973898;28;19910;-75
2021/08/02 00:55:15;;;;;;;8.63;1.38;;;14.90;99.90;;;;;;4972976;28;20026;-75
2021/08/02 00:57:41;;;;;;;5.70;1.90;;;14.90;99.90;;;;;;4973740;28;20034;-75
2021/08/02 01:00:11;;;;;;;3.33;1.60;;;14.90;99.90;;;;;;4974969;28;20051;-75
2021/08/02 01:02:40;;;;;;;3.65;1.55;;;14.80;99.90;;;;;;4972922;28;20113;-74
2021/08/02 01:05:09;;;;;;;4.47;1.70;;;14.90;99.90;;;;;;4972464;28;20039;-74
2021/08/02 01:07:42;;;;;;;3.40;1.40;;;14.80;99.90;;;;;;4973760;28;20069;-75
2021/08/02 01:10:10;;;;;;;3.92;1.80;;;14.80;99.90;;;;;;4972203;28;20525;-76
2021/08/02 01:12:39;;;;;;;2.05;1.70;;;14.80;99.90;;;;;;4973806;28;20023;-76
2021/08/02 01:15:06;;;;;;;4.57;1.73;;;14.90;99.90;;;;;;4973093;28;20111;-76
2021/08/02 01:17:33;;;;;;;3.30;1.65;;;14.90;99.90;;;;;;4974061;28;20398;-76
2021/08/02 01:20:00;;;;;;;4.45;1.83;;;14.80;99.90;;;;;;4974092;28;20088;-75
2021/08/02 01:22:29;;;;;;;4.53;2.55;;;14.80;99.90;;;;;;4974024;28;20387;-77
2021/08/02 01:24:56;;;;;;;5.88;2.17;;;14.90;99.90;;;;;;4972938;28;20039;-77
2021/08/02 01:27:47;;;;;;;4.13;2.13;;;14.80;99.90;;;;;;4973558;28;20031;-76
2021/08/02 01:30:18;;;;;;;5.97;1.65;;;14.80;99.90;;;;;;4972749;28;20022;-76
2021/08/02 01:32:45;;;;;;;6.45;1.77;;;14.80;99.90;;;;;;4973113;28;20019;-76
2021/08/02 01:35:14;;;;;;;8.38;2.22;;;14.80;99.90;;;;;;4973492;28;20027;-76
2021/08/02 01:37:42;;;;;;;2.90;1.67;;;14.90;99.90;;;;;;4972758;28;20027;-76
2021/08/02 01:40:09;;;;;;;3.38;2.20;;;14.80;99.90;;;;;;4973398;28;20027;-76
2021/08/02 01:42:35;;;;;;;5.70;1.95;;;14.80;99.90;;;;;;4973857;28;20027;-75
2021/08/02 01:45:01;;;;;;;3.28;1.58;;;14.80;99.90;;;;;;4972526;28;20038;-76
2021/08/02 01:47:56;;;;;;;4.25;1.65;;;14.80;99.90;;;;;;4973297;28;20027;-76
2021/08/02 01:50:49;;;;;;;5.03;1.65;;;14.80;99.90;;;;;;4959892;28;20035;-75
2021/08/02 01:53:27;;;;;;;6.97;2.08;;;14.80;99.90;;;;;;4976881;28;20027;-76
2021/08/02 01:56:07;;;;;;;4.43;1.60;;;14.70;99.90;;;;;;4976736;28;20467;-75
2021/08/02 01:58:40;;;;;;;8.57;2.13;;;14.80;99.90;;;;;;4976402;28;20026;-75
2021/08/02 02:01:08;;;;;;;4.35;1.65;;;14.70;99.90;;;;;;4975604;28;20282;-75
2021/08/02 02:03:36;;;;;;;4.15;1.60;;;14.70;99.90;;;;;;4973930;28;20026;-74
2021/08/02 02:06:06;;;;;;;3.78;1.70;;;14.70;99.90;;;;;;4965776;28;20097;-74
2021/08/02 02:08:37;;;;;;;4.40;2.08;;;14.70;99.90;;;;;;4976701;28;20030;-75
2021/08/02 02:11:03;;;;;;;4.65;1.70;;;14.70;99.90;;;;;;4975936;28;20438;-74
2021/08/02 02:13:46;;;;;;;5.45;1.88;;;14.80;99.90;;;;;;4975980;28;20018;-75
2021/08/02 02:16:15;;;;;;;3.08;1.90;;;14.80;99.90;;;;;;4976553;28;20035;-77
2021/08/02 02:18:46;;;;;;;3.92;1.90;;;14.80;99.90;;;;;;4976482;28;20150;-77
2021/08/02 02:21:12;;;;;;;6.63;1.73;;;14.80;99.90;;;;;;4976248;28;20102;-76
2021/08/02 02:23:38;;;;;;;3.72;1.35;;;14.70;99.90;;;;;;4976598;28;20102;-76
2021/08/02 02:26:06;;;;;;;2.03;1.50;;;14.80;99.90;;;;;;4975569;28;20039;-77
2021/08/02 02:28:34;;;;;;;4.63;1.88;;;14.70;99.90;;;;;;4975985;28;20411;-74
2021/08/02 02:31:01;;;;;;;4.70;1.95;;;14.70;99.90;;;;;;4976075;28;20031;-75
2021/08/02 02:33:30;;;;;;;5.28;2.08;;;14.70;99.90;;;;;;4972319;28;20034;-75
2021/08/02 02:35:56;;;;;;;6.72;2.25;;;14.70;99.90;;;;;;4965872;28;20027;-75
2021/08/02 02:38:22;;;;;;;5.47;2.22;;;14.60;99.90;;;;;;4976074;28;20030;-76
2021/08/02 02:40:48;;;;;;;7.07;1.98;;;14.60;99.90;;;;;;4975051;28;20113;-75
2021/08/02 02:43:14;;;;;;;2.97;1.95;;;14.60;99.90;;;;;;4976142;28;20122;-75
2021/08/02 02:45:42;;;;;;;3.83;1.95;;;14.60;99.90;;;;;;4975869;28;20034;-77
2021/08/02 02:48:08;;;;;;;3.35;1.95;;;14.60;99.90;;;;;;4974999;28;20030;-75
2021/08/02 02:50:35;;;;;;;7.15;2.47;;;14.60;99.90;;;;;;4976412;28;20030;-75
2021/08/02 02:53:02;;;;;;;4.72;2.17;;;14.60;99.90;;;;;;4975740;28;20035;-75
2021/08/02 02:55:30;;;;;;;5.45;2.97;;;14.60;99.90;;;;;;4975355;28;20062;-76
2021/08/02 02:57:56;;;;;;;4.78;2.70;;;14.60;99.90;;;;;;4975900;28;20033;-76
2021/08/02 03:00:22;;;;;;;7.78;3.00;;;14.60;99.90;;;;;;4976289;28;20027;-75
2021/08/02 03:02:52;;;;;;;3.58;2.10;;;14.50;99.90;;;;;;4974179;28;20053;-77
2021/08/02 03:05:19;;;;;;;;;;;14.50;99.90;;;;;;4976129;28;20479;-75
2021/08/02 03:07:47;;;;;;;8.63;2.67;;;14.40;99.90;;;;;;4971236;28;20339;-75
2021/08/02 03:10:15;;;;;;;5.75;2.30;;;14.20;99.90;;;;;;4966540;28;20074;-77
2021/08/02 03:12:40;;;;;;;6.07;2.80;;;14.20;99.90;;;;;;4975506;28;20027;-76
2021/08/02 03:15:06;;;;;;;8.35;3.03;;;14.10;99.90;;;;;;4974622;28;20054;-75
2021/08/02 03:17:32;;;;;;;4.10;2.80;;;14.10;99.90;;;;;;4975418;28;20031;-75
2021/08/02 03:19:57;;;;;;;5.47;2.20;;;14.00;99.90;;;;;;4975713;28;20077;-75
2021/08/02 03:22:30;;;;;;;5.32;2.35;;;14.00;99.90;;;;;;4974976;28;20039;-75
2021/08/02 03:25:09;;;;;;;3.55;2.15;;;13.90;99.90;;;;;;4975097;28;20026;-75
2021/08/02 03:27:43;;;;;;;6.82;2.33;;;13.80;99.90;;;;;;4975165;28;20383;-74
2021/08/02 03:30:13;;;;;;;4.53;2.38;;;13.80;99.90;;;;;;4974144;28;20030;-76
2021/08/02 03:32:42;;;;;;;7.18;3.10;;;13.70;99.90;;;;;;4974919;28;20019;-76
2021/08/02 03:35:10;;;;;;;5.45;2.53;;;13.70;99.90;;;;;;4974919;28;20121;-74
2021/08/02 03:37:38;;;;;;;3.47;2.92;;;13.60;99.90;;;;;;4974539;28;20034;-76
2021/08/02 03:40:05;;;;;;;5.10;3.13;;;13.60;99.90;;;;;;4974412;28;20019;-76
2021/08/02 03:42:33;;;;;;;5.03;2.88;;;13.60;99.90;;;;;;4974724;28;20034;-77
2021/08/02 03:44:59;;;;;;;11.80;3.03;;;13.60;99.90;;;;;;4974422;28;20039;-76
2021/08/02 03:47:26;;;;;;;5.07;2.70;;;13.50;99.90;;;;;;4975567;28;20082;-76
2021/08/02 03:49:52;;;;;;;4.40;2.90;;;13.50;99.90;;;;;;4974539;28;20386;-76
2021/08/02 03:52:17;;;;;;;4.47;3.00;;;13.50;99.90;;;;;;4974151;28;20106;-76
2021/08/02 03:54:43;;;;;;;3.97;3.15;;;13.40;99.90;;;;;;4974672;28;20118;-76
2021/08/02 03:57:10;;;;;;;6.72;3.22;;;13.40;99.90;;;;;;4974883;28;20054;-76
2021/08/02 03:59:36;;;;;;;3.55;2.55;;;13.40;99.90;;;;;;4985206;28;20586;-76
2021/08/02 04:02:02;;;;;;;4.22;3.33;;;13.30;99.90;;;;;;4979824;28;20105;-76
2021/08/02 04:04:27;;;;;;;4.38;2.65;;;13.30;99.90;;;;;;4984282;28;20027;-76
2021/08/02 04:06:54;;;;;;;4.60;2.90;;;13.30;99.90;;;;;;4975408;28;20471;-76
2021/08/02 04:09:19;;;;;;;3.35;3.05;;;13.30;99.90;;;;;;4976329;28;20609;-76
2021/08/02 04:11:45;;;;;;;4.55;3.05;;;13.20;99.90;;;;;;4973499;28;20138;-74
2021/08/02 04:14:11;;;;;;;4.97;2.70;;;13.20;99.90;;;;;;4973788;28;20058;-74
2021/08/02 04:16:38;;;;;;;5.70;2.83;;;13.20;99.90;;;;;;4974501;28;20026;-76
2021/08/02 04:19:04;;;;;;;4.05;2.78;;;13.20;99.90;;;;;;4973794;28;20035;-76
2021/08/02 04:21:30;;;;;;;6.43;2.72;;;13.20;99.90;;;;;;4974239;28;20030;-76
2021/08/02 04:23:56;;;;;;;7.13;2.80;;;13.20;99.90;;;;;;4973872;28;20027;-76
2021/08/02 04:26:24;;;;;;;4.18;2.88;;;13.20;99.90;;;;;;4973440;28;20051;-76
2021/08/02 04:28:56;;;;;;;4.22;3.10;;;13.20;99.90;;;;;;4974047;28;20085;-75
2021/08/02 04:31:25;;;;;;;5.30;3.00;;;13.20;99.90;;;;;;4974051;28;20037;-76
2021/08/02 04:33:51;;;;;;;6.07;3.17;;;13.30;99.90;;;;;;4972738;28;20464;-76
2021/08/02 04:36:17;;;;;;;4.88;3.20;;;13.20;99.90;;;;;;4974338;28;20118;-74
2021/08/02 04:38:42;;;;;;;4.97;3.20;;;13.20;99.90;;;;;;4976796;28;20054;-77
2021/08/02 04:41:08;;;;;;;8.48;3.13;;;13.30;99.90;;;;;;4975075;28;20030;-75
2021/08/02 04:43:34;;;;;;;4.65;2.60;;;13.30;99.90;;;;;;4975275;28;20033;-76
2021/08/02 04:45:59;;;;;;;7.07;2.40;;;13.30;99.90;;;;;;4973546;28;20038;-76
2021/08/02 04:48:25;;;;;;;4.30;2.78;;;13.30;99.90;;;;;;4973327;28;20050;-76
2021/08/02 04:50:50;;;;;;;3.80;2.90;;;13.40;99.90;;;;;;4973215;28;20026;-76
2021/08/02 04:53:16;;;;;;;4.93;2.50;;;13.40;99.90;;;;;;4973592;28;20022;-75
2021/08/02 04:55:41;;;;;;;2.88;2.55;;;13.50;99.90;;;;;;4975634;28;20046;-74
2021/08/02 04:58:07;;;;;;;3.15;2.65;;;13.50;99.90;;;;;;4974098;28;20095;-75
2021/08/02 05:00:32;;;;;;;6.78;2.10;;;13.60;99.90;;;;;;4972722;28;20023;-75
2021/08/02 05:03:00;;;;;;;5.32;2.47;;;13.60;99.90;;;;;;4973412;28;20034;-76
2021/08/02 05:05:26;;;;;;;4.72;2.40;;;13.70;99.90;;;;;;4987234;28;20399;-76
2021/08/02 05:07:52;;;;;;;3.38;2.42;;;13.70;99.90;;;;;;4972025;28;20046;-76
2021/08/02 05:10:18;;;;;;;6.72;2.47;;;13.70;99.90;;;;;;4973534;28;20125;-77
2021/08/02 05:12:44;;;;;;;4.90;2.40;;;13.80;99.90;;;;;;4968972;28;20023;-75
2021/08/02 05:15:11;;;;;;;6.53;2.30;;;13.90;99.90;;;;;;4963020;28;20034;-75
2021/08/02 05:17:37;;;;;;;4.18;2.78;;;13.90;99.90;;;;;;4973665;28;20051;-76
2021/08/02 05:20:04;;;;;;;5.03;2.28;;;13.90;99.90;;;;;;4971915;28;20085;-76
2021/08/02 05:22:30;;;;;;;8.02;2.30;;;14.00;99.90;;;;;;4966311;28;20082;-76
2021/08/02 05:24:55;;;;;;;2.90;1.90;;;14.00;99.90;;;;;;4970581;28;20427;-76
2021/08/02 05:27:21;;;;;;;5.70;2.35;;;14.10;99.90;;;;;;4973294;28;20034;-76
2021/08/02 05:29:46;;;;;;;5.15;2.33;;;14.00;99.90;;;;;;4967624;28;20034;-77
2021/08/02 05:32:12;;;;;;;3.60;2.17;;;14.10;99.90;;;;;;4962756;28;20114;-77
2021/08/02 05:34:40;;;;;;;4.80;2.30;;;14.10;99.90;;;;;;4960851;28;20051;-76
2021/08/02 05:37:07;;;;;;;6.80;2.72;;;14.00;99.90;;;;;;4963942;28;20424;-77
2021/08/02 05:39:33;;;;;;;3.50;2.13;;;14.00;99.90;;;;;;4959951;28;20054;-77
2021/08/02 05:41:59;;;;;;;3.25;2.40;;;14.10;99.90;;;;;;4959536;28;20057;-76
2021/08/02 05:44:24;;;;;;;2.58;2.38;;;14.00;99.90;;;;;;4958144;28;20429;-75
2021/08/02 05:46:50;;;;;;;8.45;2.80;;;14.00;99.90;;;;;;4963722;28;20166;-76
2021/08/02 05:49:15;;;;;;;4.07;2.60;;;14.00;99.90;;;;;;4959212;28;20027;-75
2021/08/02 05:51:41;;;;;;;5.85;2.50;;;14.00;99.90;;;;;;4958089;28;20111;-76
2021/08/02 05:54:06;;;;;;;6.65;2.80;;;14.10;99.90;;;;;;4957638;28;20023;-76
2021/08/02 05:56:32;;;;;;;4.22;2.47;;;14.20;99.90;;;;;;4958914;28;20027;-77
2021/08/02 05:58:57;;;;;;;3.50;2.38;;;14.20;99.90;;;;;;4964327;28;20022;-76
2021/08/02 06:01:23;;;;;;;3.35;2.10;;;14.40;99.90;;;;;;4965489;28;20487;-75
2021/08/02 06:03:48;;;;;;;3.97;2.15;;;14.40;99.90;;;;;;4974470;28;20027;-76
2021/08/02 06:06:16;;;;;;;8.52;2.22;;;14.60;99.90;;;;;;4963484;28;20031;-78
2021/08/02 06:08:42;;;;;;;2.90;2.00;;;14.60;99.90;;;;;;4958884;28;20019;-77
2021/08/02 06:11:08;;;;;;;3.97;2.75;;;14.70;99.90;;;;;;4963935;28;20061;-76
2021/08/02 06:13:34;;;;;;;3.33;2.10;;;14.80;99.90;;;;;;4961450;28;20023;-77
2021/08/02 06:16:03;;;;;;;9.38;2.42;;;14.90;99.90;;;;;;4960277;28;20026;-75
2021/08/02 06:18:29;;;;;;;3.50;2.20;;;15.00;99.90;;;;;;4958221;28;20110;-74
2021/08/02 06:20:54;;;;;;;4.90;2.05;;;15.10;99.90;;;;;;4965327;28;20130;-76
2021/08/02 06:23:20;;;;;;;6.93;2.13;;;15.20;99.90;;;;;;4958056;28;20031;-76
2021/08/02 06:25:45;;;;;;;3.72;1.67;;;15.30;99.90;;;;;;4957064;28;20027;-74
2021/08/02 06:28:11;;;;;;;2.83;1.85;;;15.40;99.90;;;;;;4965773;28;20018;-76
2021/08/02 06:30:36;;;;;;;5.90;1.98;;;15.50;99.90;;;;;;4966609;28;20078;-76
2021/08/02 06:33:03;;;;;;;4.82;1.90;;;15.50;99.90;;;;;;4966409;28;20018;-77
2021/08/02 06:35:29;;;;;;;2.55;1.48;;;15.60;99.90;;;;;;4966665;28;20022;-77
2021/08/02 06:37:54;;;;;;;7.20;2.03;;;15.70;99.90;;;;;;4957013;28;20090;-76
2021/08/02 06:40:20;;;;;;;14.93;2.10;;;15.70;99.90;;;;;;4959630;28;20027;-76
2021/08/02 06:42:47;;;;;;;4.40;2.47;;;15.70;99.90;;;;;;4958727;28;20027;-76
2021/08/02 06:45:13;;;;;;;6.68;2.00;;;15.70;99.90;;;;;;4961820;28;20039;-76
2021/08/02 06:47:38;;;;;;;4.30;1.70;;;15.80;99.90;;;;;;4965553;28;20041;-77
2021/08/02 06:50:05;;;;;;;3.22;1.42;;;15.80;99.90;;;;;;4960128;28;20574;-77
2021/08/02 06:52:31;;;;;;;2.78;1.40;;;15.90;99.90;;;;;;4966951;28;20023;-77
2021/08/02 06:54:56;;;;;;;2.45;1.58;;;15.90;99.90;;;;;;4959095;28;20027;-77
2021/08/02 06:57:22;;;;;;;6.53;1.70;;;15.90;99.90;;;;;;4959679;28;20027;-75
2021/08/02 06:59:48;;;;;;;3.08;1.00;;;16.00;99.90;;;;;;4958877;28;20024;-76
2021/08/02 07:02:13;;;;;;;8.60;1.60;;;16.00;99.90;;;;;;4960172;28;20053;-76
2021/08/02 07:04:39;;;;;;;4.22;1.50;;;16.00;99.90;;;;;;4956816;28;20495;-75
2021/08/02 07:07:05;;;;;;;5.18;1.30;;;16.10;99.90;;;;;;4958603;28;20039;-75
2021/08/02 07:09:31;;;;;;;10.98;1.83;;;16.20;99.90;;;;;;4962835;28;20518;-76
2021/08/02 07:11:56;;;;;;;3.33;1.40;;;16.20;99.90;;;;;;4963593;28;20055;-75
2021/08/02 07:14:23;;;;;;;5.20;1.48;;;16.30;99.90;;;;;;4973726;28;20115;-77
2021/08/02 07:16:49;;;;;;;5.30;1.13;;;16.40;99.90;;;;;;4974345;28;20478;-77
2021/08/02 07:19:14;;;;;;;1.70;1.05;;;16.50;99.90;;;;;;4973813;28;20038;-77
2021/08/02 07:21:43;;;;;;;6.00;1.90;;;16.70;99.90;;;;;;4974191;28;20102;-77
2021/08/02 07:24:11;;;;;;;6.00;1.30;;;16.80;99.90;;;;;;4974736;28;20031;-76
2021/08/02 07:26:36;;;;;;;2.53;1.13;;;17.00;99.90;;;;;;4963225;28;20058;-77
2021/08/02 07:29:04;;;;;;;4.55;1.20;;;17.10;99.90;;;;;;4968069;28;20464;-77
2021/08/02 07:31:29;;;;;;;3.75;1.25;;;17.30;99.90;;;;;;4968830;28;20031;-76
2021/08/02 07:33:55;;;;;;;6.78;1.40;;;17.40;99.90;;;;;;4958112;28;20459;-78
2021/08/02 07:36:21;;;;;;;5.05;1.38;;;17.40;99.90;;;;;;4961130;28;20035;-77
2021/08/02 07:38:47;;;;;;;3.80;1.27;;;17.40;99.90;;;;;;4965549;28;20054;-78
2021/08/02 07:41:16;;;;;;;1.75;1.30;;;17.40;99.90;;;;;;4960683;28;20115;-75
2021/08/02 07:43:44;;;;;;;2.03;1.43;;;17.40;99.90;;;;;;4961994;28;20035;-77
2021/08/02 07:46:11;;;;;;;3.65;1.13;;;17.50;99.90;;;;;;4973886;28;20298;-78
2021/08/02 07:48:36;;;;;;;3.75;1.30;;;17.50;99.90;;;;;;4971232;28;20028;-78
2021/08/02 07:51:02;;;;;;;4.20;1.02;;;17.60;99.90;;;;;;4970675;28;20018;-79
2021/08/02 07:53:27;;;;;;;3.72;1.30;;;17.70;99.90;;;;;;4975074;28;20114;-78
2021/08/02 07:55:53;;;;;;;4.60;1.00;;;17.80;99.90;;;;;;4971383;28;20026;-78
2021/08/02 07:58:18;;;;;;;3.72;1.45;;;17.90;99.90;;;;;;4970765;28;20102;-80
2021/08/02 08:00:44;;;;;;;3.90;0.90;;;18.10;99.90;;;;;;4977054;28;20026;-75
2021/08/02 08:03:12;;;;;;;3.58;1.10;;;18.20;99.90;;;;;;4973471;28;20015;-77
2021/08/02 08:05:37;;;;;;;4.75;0.90;;;18.20;99.90;;;;;;4981729;28;20033;-77
2021/08/02 08:08:03;;;;;;;2.83;1.10;;;18.20;99.90;;;;;;4969242;28;20481;-78
2021/08/02 08:10:29;;;;;;;2.75;1.40;;;18.20;99.90;;;;;;4967201;28;20097;-76
2021/08/02 08:12:55;;;;;;;4.38;1.38;;;18.10;99.90;;;;;;4973089;28;20371;-77
2021/08/02 08:15:22;;;;;;;7.10;1.30;;;17.80;99.90;;;;;;4968143;28;20038;-76
2021/08/02 08:17:48;;;;;;;3.35;1.90;;;17.60;99.90;;;;;;4983600;28;20871;-76
2021/08/02 08:20:16;;;;;;;8.25;1.75;;;17.40;99.90;;;;;;4982891;28;20050;-77
2021/08/02 08:22:42;;;;;;;2.40;1.35;;;17.20;99.90;;;;;;4981228;28;20027;-75
2021/08/02 08:25:09;;;;;;;2.08;1.20;;;17.10;99.90;;;;;;4978826;28;20390;-75
2021/08/02 08:27:34;;;;;;;1.75;1.02;;;17.10;99.90;;;;;;4975930;28;20166;-76
2021/08/02 08:30:00;;;;;;;3.35;1.15;;;17.00;99.90;;;;;;4972938;28;20097;-77
2021/08/02 08:32:25;;;;;;;2.10;1.30;;;16.90;99.90;;;;;;4961256;28;20031;-76
2021/08/02 08:34:51;;;;;;;7.20;1.10;;;16.80;99.90;;;;;;4956996;28;20037;-76
2021/08/02 08:37:17;;;;;;;1.27;0.98;;;16.70;99.90;;;;;;4964154;28;20019;-75
2021/08/02 08:39:43;;;;;;;5.00;1.10;;;16.80;99.90;;;;;;4981700;28;20019;-75
2021/08/02 08:42:09;;;;;;;3.45;1.00;;;16.80;99.90;;;;;;4972977;28;20015;-75
2021/08/02 08:44:34;;;;;;;1.67;1.15;;;16.80;99.90;;;;;;4972423;28;20074;-76
2021/08/02 08:47:01;;;;;;;5.22;1.00;;;16.80;99.90;;;;;;4978945;28;20026;-77
2021/08/02 08:49:26;;;;;;;4.22;1.20;;;16.80;99.90;;;;;;4972396;28;20019;-75
2021/08/02 08:51:55;;;;;;;3.10;1.00;;;16.70;99.90;;;;;;4975141;28;20034;-75
2021/08/02 08:54:21;;;;;;;8.82;1.40;;;16.70;99.90;;;;;;4970176;28;20030;-74
2021/08/02 08:56:47;;;;;;;4.65;2.00;;;16.70;99.90;;;;;;4968673;28;20082;-76
2021/08/02 08:59:13;;;;;;;3.05;1.10;;;16.80;99.90;;;;;;4977300;28;20026;-76
2021/08/02 09:01:40;;;;;;;3.70;1.05;;;16.90;99.90;;;;;;4966487;28;20054;-74
2021/08/02 09:04:06;;;;;;;3.83;1.10;;;16.80;99.90;;;;;;4977265;28;20023;-74
2021/08/02 09:06:43;;;;;;;2.47;1.35;;;16.80;99.90;;;;;;4972469;28;20502;-74
2021/08/02 09:09:09;;;;;;;3.13;1.00;;;16.90;99.90;;;;;;4962271;28;20077;-75
2021/08/02 09:11:34;;;;;;;3.13;1.10;;;17.00;99.90;;;;;;4971401;28;20050;-74
2021/08/02 09:14:10;;;;;;;2.88;1.00;;;17.10;99.90;;;;;;4966200;28;20162;-74
2021/08/02 09:16:36;;;;;;;2.97;1.00;;;17.20;99.90;;;;;;4961328;28;20105;-72
2021/08/02 09:19:10;;;;;;;1.60;0.90;;;17.30;99.90;;;;;;4969471;28;20031;-73
2021/08/02 09:21:43;;;;;;;3.78;1.20;;;17.40;99.90;;;;;;4962538;28;20043;-73
2021/08/02 09:24:09;;;;;;;2.85;0.95;;;17.40;99.90;;;;;;4969919;28;20030;-73
2021/08/02 09:26:38;;;;;;;2.40;0.90;;;17.50;99.90;;;;;;4962722;28;20062;-73
2021/08/02 09:29:04;;;;;;;2.75;1.08;;;17.60;99.90;;;;;;4958978;28;20278;-74
2021/08/02 09:31:38;;;;;;;5.05;0.90;;;17.70;99.90;;;;;;4956868;28;20480;-74
2021/08/02 09:34:06;;;;;;;3.65;1.13;;;17.80;99.90;;;;;;4954285;28;20063;-74
2021/08/02 09:36:59;;;;;;;5.20;1.08;;;18.00;99.90;;;;;;4956549;28;20023;-73
2021/08/02 09:39:32;;;;;;;3.85;1.02;;;18.00;99.90;;;;;;4956053;28;20476;-73
2021/08/02 09:42:06;;;;;;;1.45;0.90;;;18.10;99.90;;;;;;4960651;28;20019;-73
2021/08/02 09:44:32;;;;;;;4.07;1.13;;;18.10;99.90;;;;;;4957423;28;20118;-72
2021/08/02 09:47:00;;;;;;;3.70;1.10;;;18.30;99.90;;;;;;4962276;28;20111;-74
2021/08/02 09:49:27;;;;;;;4.97;0.90;;;18.50;99.90;;;;;;4956782;28;20055;-73
2021/08/02 09:51:55;;;;;;;3.25;0.75;;;18.50;99.90;;;;;;4960549;28;20106;-73
2021/08/02 09:54:26;;;;;;;4.20;1.23;;;18.60;99.90;;;;;;4962967;28;20107;-73
2021/08/02 09:56:53;;;;;;;3.00;1.13;;;18.80;99.90;;;;;;4963754;28;20025;-74
2021/08/02 09:59:19;;;;;;;3.08;1.08;;;19.00;99.90;;;;;;4957028;28;20031;-73
2021/08/02 10:01:48;;;;;;;3.22;0.98;;;19.00;99.90;;;;;;4955840;28;20055;-74
2021/08/02 10:04:17;;;;;;;5.32;1.30;;;19.10;99.90;;;;;;4953104;28;20124;-74
2021/08/02 10:06:44;;;;;;;2.57;0.80;;;19.30;99.90;;;;;;4956049;28;20400;-73
2021/08/02 10:09:13;;;;;;;1.60;0.90;;;19.40;99.90;;;;;;4957112;28;20078;-73
2021/08/02 10:11:39;;;;;;;5.75;0.95;;;19.50;99.90;;;;;;4955118;28;20079;-73
2021/08/02 10:14:06;;;;;;;3.03;1.17;;;19.70;99.90;;;;;;4961480;28;20031;-73
2021/08/02 10:16:34;;;;;;;1.70;0.98;;;19.60;99.00;;;;;;4962952;28;20137;-73
2021/08/02 10:19:06;;;;;;;5.05;1.15;;;19.70;99.90;;;;;;4970058;28;20050;-73
2021/08/02 10:21:38;;;;;;;1.80;0.90;;;19.70;99.90;;;;;;4966588;28;20030;-73
2021/08/02 10:24:05;;;;;;;2.53;1.10;;;19.60;99.90;;;;;;4969638;28;20035;-73
2021/08/02 10:26:31;;;;;;;3.10;1.00;;;19.70;99.90;;;;;;4984028;28;20034;-73
2021/08/02 10:28:58;;;;;;;2.33;0.70;;;19.80;99.90;;;;;;4980077;28;20031;-74
2021/08/02 10:31:26;;;;;;;4.32;1.08;;;19.70;99.90;;;;;;4987748;28;20572;-74
2021/08/02 10:33:54;;;;;;;3.15;0.82;;;19.60;99.90;;;;;;4975361;28;20069;-72
2021/08/02 10:36:21;;;;;;;2.83;0.90;;;19.70;99.90;;;;;;4974565;28;20033;-73
2021/08/02 10:38:51;;;;;;;4.20;1.10;;;20.00;99.90;;;;;;4974342;28;20034;-73
2021/08/02 10:41:29;;;;;;;1.75;0.80;;;20.20;99.90;;;;;;4974582;28;20042;-74
2021/08/02 10:43:55;;;;;;;3.08;1.05;;;20.20;98.10;;;;;;4983120;28;20117;-72
2021/08/02 10:46:26;;;;;;;3.33;1.10;;;20.40;98.20;;;;;;4979451;28;20041;-73
2021/08/02 10:48:53;;;;;;;2.22;0.82;;;20.40;98.90;;;;;;4986997;28;20366;-72
2021/08/02 10:51:21;;;;;;;3.47;0.90;;;20.30;98.40;;;;;;4974857;28;20027;-73
2021/08/02 10:54:02;;;;;;;2.83;0.98;;;20.30;98.40;;;;;;4973650;28;20471;-73
2021/08/02 10:56:29;;;;;;;1.25;0.85;;;20.20;98.20;;;;;;4975018;28;20066;-73
2021/08/02 10:58:59;;;;;;;8.30;1.13;;;20.20;98.50;;;;;;4961657;28;20030;-73
2021/08/02 11:01:26;;;;;;;5.75;0.98;;;20.20;97.90;;;;;;4974016;28;20479;-74
2021/08/02 11:03:57;;;;;;;3.90;1.27;;;20.20;98.50;;;;;;4974349;28;20077;-73
2021/08/02 11:06:26;;;;;;;4.30;1.25;;;20.10;98.30;;;;;;4973874;28;20041;-73
2021/08/02 11:08:54;;;;;;;2.25;1.17;;;19.90;99.40;;;;;;4968789;28;20093;-73
2021/08/02 11:11:26;;;;;;;6.75;1.30;;;19.80;99.90;;;;;;4965139;28;20503;-72
2021/08/02 11:14:03;;;;;;;2.53;0.90;;;19.60;99.90;;;;;;4973269;28;20035;-73
2021/08/02 11:16:29;;;;;;;4.53;1.20;;;19.50;99.90;;;;;;4965624;28;20102;-73
2021/08/02 11:18:55;;;;;;;3.72;1.00;;;19.20;99.90;;;;;;4974244;28;20579;-73
2021/08/02 11:21:23;;;;;;;7.88;1.20;;;19.10;99.90;;;;;;4973818;28;20118;-73
2021/08/02 11:23:50;;;;;;;1.42;0.90;;;19.00;99.90;;;;;;4963775;28;20023;-73
2021/08/02 11:26:16;;;;;;;6.80;1.30;;;18.90;99.90;;;;;;4964376;28;20045;-72
2021/08/02 11:28:48;;;;;;;2.10;1.10;;;18.80;99.90;;;;;;4973278;28;20060;-73
2021/08/02 11:31:14;;;;;;;6.13;1.13;;;18.80;99.90;;;;;;4974080;28;20026;-72
2021/08/02 11:33:42;;;;;;;4.60;1.08;;;18.70;99.90;;;;;;4974286;28;20031;-72
2021/08/02 11:36:19;;;;;;;2.08;1.40;;;18.70;99.90;;;;;;4985034;28;20034;-74
2021/08/02 11:38:46;;;;;;;2.65;0.80;;;18.60;99.90;;;;;;4962437;28;20042;-74
2021/08/02 11:41:27;;;;;;;4.20;1.83;;;18.60;99.90;;;;;;4974506;28;20030;-75
2021/08/02 11:43:53;;;;;;;2.22;1.25;;;18.60;99.90;;;;;;4963047;28;20023;-74
2021/08/02 11:46:19;;;;;;;3.65;1.38;;;18.60;99.90;;;;;;4986955;28;20479;-76
2021/08/02 11:48:46;;;;;;;3.28;1.15;;;18.60;99.90;;;;;;4972885;28;20116;-75
2021/08/02 11:51:13;;;;;;;3.42;1.30;;;18.60;99.90;;;;;;4980965;28;20042;-76
2021/08/02 11:53:39;;;;;;;3.38;1.67;;;18.70;99.90;;;;;;4969445;28;20435;-75
2021/08/02 11:56:05;;;;;;;2.60;1.08;;;18.70;99.90;;;;;;4972498;28;20037;-75
2021/08/02 11:58:43;;;;;;;2.33;1.15;;;18.90;99.90;;;;;;4973936;28;20023;-76
2021/08/02 12:01:09;;;;;;;4.03;1.15;;;19.10;99.90;;;;;;4972905;28;20123;-75
2021/08/02 12:03:36;;;;;;;1.95;1.20;;;19.30;99.90;;;;;;4971798;28;20019;-76
2021/08/02 12:06:07;;;;;;;5.40;1.20;;;19.50;99.90;;;;;;4972196;28;20043;-74
2021/08/02 12:08:33;;;;;;;4.93;1.17;;;19.70;99.90;;;;;;4966182;28;20058;-77
2021/08/02 12:11:00;;;;;;;1.45;0.90;;;19.90;99.90;;;;;;4964173;28;20418;-77
2021/08/02 12:13:40;;;;;;;5.40;1.23;;;20.00;99.90;;;;;;4974092;28;20110;-77
2021/08/02 12:16:08;;;;;;;2.15;0.90;;;20.30;99.90;;;;;;4967567;28;20022;-76
2021/08/02 12:18:33;;;;;;;2.08;1.15;;;20.50;99.60;;;;;;4959067;28;20035;-75
2021/08/02 12:21:24;;;;;;;7.05;1.30;;;20.60;98.90;;;;;;4966650;28;20027;-77
2021/08/02 12:24:01;;;;;;;1.83;1.13;;;20.70;97.90;;;;;;4962461;28;20030;-76
2021/08/02 12:26:26;;;;;;;4.65;1.35;;;20.80;98.20;;;;;;4959984;28;20043;-77
2021/08/02 12:28:52;;;;;;;2.38;1.10;;;20.80;97.80;;;;;;4954603;28;20033;-76
2021/08/02 12:31:23;;;;;;;10.13;1.13;;;20.90;97.60;;;;;;4962960;28;20066;-76
2021/08/02 12:33:50;;;;;;;4.65;1.10;;;20.90;96.80;;;;;;4962657;28;20023;-77
2021/08/02 12:36:17;;;;;;;2.55;0.90;;;20.90;97.10;;;;;;4958750;28;20720;-77
2021/08/02 12:38:48;;;;;;;4.30;1.00;;;20.90;97.10;;;;;;4959864;28;20030;-76
2021/08/02 12:41:15;;;;;;;4.55;0.93;;;21.00;97.30;;;;;;4958158;28;20430;-75
2021/08/02 12:43:44;;;;;;;3.55;1.10;;;20.90;96.80;;;;;;4957296;28;20081;-76
2021/08/02 12:46:13;;;;;;;3.13;1.10;;;20.70;97.30;;;;;;4958437;28;20201;-77
2021/08/02 12:48:39;;;;;;;2.38;1.25;;;20.40;97.40;;;;;;4963048;28;20034;-77
2021/08/02 12:51:06;;;;;;;2.03;1.35;;;20.30;97.20;;;;;;4964057;28;20027;-77
2021/08/02 12:53:31;;;;;;;1.52;1.00;;;20.20;97.40;;;;;;4958151;28;20501;-77